sensor_id;sensor_type;location;lat;lon;timestamp;P1;durP1;ratioP1;P2;durP2;ratioP2
47912;SDS011;33676;51.006;17.180;2023-12-20T00:02:17;10.20;;;9.30;;
47912;SDS011;33676;51.006;17.180;2023-12-20T00:04:44;26.30;;;21.20;;
47912;SDS011;33676;51.006;17.180;2023-12-20T00:07:12;14.40;;;11.30;;
47912;SDS011;33676;51.006;17.180;2023-12-20T00:09:39;11.70;;;9.70;;
47912;SDS011;33676;51.006;17.180;2023-12-20T00:12:06;10.80;;;9.60;;
47912;SDS011;33676;51.006;17.180;2023-12-20T00:14:34;12.80;;;9.60;;
47912;SDS011;33676;51.006;17.180;2023-12-20T00:17:01;13.90;;;11.70;;
47912;SDS011;33676;51.006;17.180;2023-12-20T00:19:28;11.40;;;9.80;;
47912;SDS011;33676;51.006;17.180;2023-12-20T00:21:55;13.80;;;11.50;;
47912;SDS011;33676;51.006;17.180;2023-12-20T00:24:22;11.60;;;10.40;;
47912;SDS011;33676;51.006;17.180;2023-12-20T00:26:49;9.30;;;8.40;;
47912;SDS011;33676;51.006;17.180;2023-12-20T00:29:16;9.80;;;7.30;;
47912;SDS011;33676;51.006;17.180;2023-12-20T00:31:44;9.60;;;8.30;;
47912;SDS011;33676;51.006;17.180;2023-12-20T00:34:11;8.30;;;7.40;;
47912;SDS011;33676;51.006;17.180;2023-12-20T00:36:39;9.40;;;8.30;;
47912;SDS011;33676;51.006;17.180;2023-12-20T00:43:43;6.40;;;5.80;;
47912;SDS011;33676;51.006;17.180;2023-12-20T00:46:12;9.40;;;7.40;;
47912;SDS011;33676;51.006;17.180;2023-12-20T00:48:41;6.80;;;6.10;;
47912;SDS011;33676;51.006;17.180;2023-12-20T00:51:11;7.20;;;6.50;;
47912;SDS011;33676;51.006;17.180;2023-12-20T00:53:39;8.90;;;7.00;;
47912;SDS011;33676;51.006;17.180;2023-12-20T00:56:08;7.70;;;7.00;;
47912;SDS011;33676;51.006;17.180;2023-12-20T00:58:36;8.00;;;7.30;;
47912;SDS011;33676;51.006;17.180;2023-12-20T01:01:05;7.50;;;6.80;;
47912;SDS011;33676;51.006;17.180;2023-12-20T01:03:34;7.20;;;6.50;;
47912;SDS011;33676;51.006;17.180;2023-12-20T01:06:03;10.10;;;6.80;;
47912;SDS011;33676;51.006;17.180;2023-12-20T01:08:33;9.00;;;7.40;;
47912;SDS011;33676;51.006;17.180;2023-12-20T01:11:06;8.40;;;7.00;;
47912;SDS011;33676;51.006;17.180;2023-12-20T01:13:34;7.30;;;6.60;;
47912;SDS011;33676;51.006;17.180;2023-12-20T01:16:03;8.40;;;7.80;;
47912;SDS011;33676;51.006;17.180;2023-12-20T01:18:32;11.40;;;8.20;;
47912;SDS011;33676;51.006;17.180;2023-12-20T01:21:04;10.60;;;8.10;;
47912;SDS011;33676;51.006;17.180;2023-12-20T01:23:33;10.70;;;8.60;;
47912;SDS011;33676;51.006;17.180;2023-12-20T01:26:01;9.50;;;8.40;;
47912;SDS011;33676;51.006;17.180;2023-12-20T01:28:31;8.50;;;7.60;;
47912;SDS011;33676;51.006;17.180;2023-12-20T01:30:59;9.70;;;8.70;;
47912;SDS011;33676;51.006;17.180;2023-12-20T01:33:28;10.60;;;8.30;;
47912;SDS011;33676;51.006;17.180;2023-12-20T01:35:56;7.20;;;6.50;;
47912;SDS011;33676;51.006;17.180;2023-12-20T01:38:25;8.40;;;7.50;;
47912;SDS011;33676;51.006;17.180;2023-12-20T01:40:53;8.20;;;7.40;;
47912;SDS011;33676;51.006;17.180;2023-12-20T01:43:22;8.30;;;7.50;;
47912;SDS011;33676;51.006;17.180;2023-12-20T01:45:54;8.40;;;7.50;;
47912;SDS011;33676;51.006;17.180;2023-12-20T01:48:25;8.40;;;7.50;;
47912;SDS011;33676;51.006;17.180;2023-12-20T01:50:57;8.20;;;7.20;;
47912;SDS011;33676;51.006;17.180;2023-12-20T01:53:26;6.90;;;6.10;;
47912;SDS011;33676;51.006;17.180;2023-12-20T01:55:57;7.20;;;6.50;;
47912;SDS011;33676;51.006;17.180;2023-12-20T01:58:26;7.70;;;7.00;;
47912;SDS011;33676;51.006;17.180;2023-12-20T02:01:01;8.70;;;7.20;;
47912;SDS011;33676;51.006;17.180;2023-12-20T02:03:30;7.70;;;7.00;;
47912;SDS011;33676;51.006;17.180;2023-12-20T02:05:58;7.10;;;6.40;;
47912;SDS011;33676;51.006;17.180;2023-12-20T02:08:27;7.80;;;7.00;;
47912;SDS011;33676;51.006;17.180;2023-12-20T02:10:55;8.10;;;7.00;;
47912;SDS011;33676;51.006;17.180;2023-12-20T02:13:24;9.00;;;7.60;;
47912;SDS011;33676;51.006;17.180;2023-12-20T02:15:55;11.50;;;8.60;;
47912;SDS011;33676;51.006;17.180;2023-12-20T02:18:23;9.60;;;8.60;;
47912;SDS011;33676;51.006;17.180;2023-12-20T02:20:52;10.00;;;8.20;;
47912;SDS011;33676;51.006;17.180;2023-12-20T02:23:21;9.30;;;8.40;;
47912;SDS011;33676;51.006;17.180;2023-12-20T02:25:50;8.60;;;7.70;;
47912;SDS011;33676;51.006;17.180;2023-12-20T02:28:19;9.40;;;8.40;;
47912;SDS011;33676;51.006;17.180;2023-12-20T02:30:47;8.10;;;7.40;;
47912;SDS011;33676;51.006;17.180;2023-12-20T02:33:18;8.30;;;7.60;;
47912;SDS011;33676;51.006;17.180;2023-12-20T02:35:46;8.00;;;6.90;;
47912;SDS011;33676;51.006;17.180;2023-12-20T02:38:16;7.80;;;7.10;;
47912;SDS011;33676;51.006;17.180;2023-12-20T02:40:44;7.90;;;7.10;;
47912;SDS011;33676;51.006;17.180;2023-12-20T02:43:17;9.40;;;8.50;;
47912;SDS011;33676;51.006;17.180;2023-12-20T02:45:46;8.70;;;8.00;;
47912;SDS011;33676;51.006;17.180;2023-12-20T02:48:14;9.30;;;8.20;;
47912;SDS011;33676;51.006;17.180;2023-12-20T02:50:43;9.50;;;8.50;;
47912;SDS011;33676;51.006;17.180;2023-12-20T02:53:11;8.70;;;7.90;;
47912;SDS011;33676;51.006;17.180;2023-12-20T02:55:40;9.00;;;8.20;;
47912;SDS011;33676;51.006;17.180;2023-12-20T02:58:08;9.10;;;8.20;;
47912;SDS011;33676;51.006;17.180;2023-12-20T03:00:37;9.40;;;8.60;;
47912;SDS011;33676;51.006;17.180;2023-12-20T03:03:05;13.10;;;10.40;;
47912;SDS011;33676;51.006;17.180;2023-12-20T03:05:34;10.00;;;8.90;;
47912;SDS011;33676;51.006;17.180;2023-12-20T03:08:02;11.40;;;9.40;;
47912;SDS011;33676;51.006;17.180;2023-12-20T03:10:31;11.60;;;10.40;;
47912;SDS011;33676;51.006;17.180;2023-12-20T03:13:00;10.60;;;9.50;;
47912;SDS011;33676;51.006;17.180;2023-12-20T03:15:28;10.10;;;9.00;;
47912;SDS011;33676;51.006;17.180;2023-12-20T03:17:57;10.60;;;9.50;;
47912;SDS011;33676;51.006;17.180;2023-12-20T03:20:32;10.80;;;9.20;;
47912;SDS011;33676;51.006;17.180;2023-12-20T03:23:03;10.10;;;9.10;;
47912;SDS011;33676;51.006;17.180;2023-12-20T03:25:32;9.30;;;8.30;;
47912;SDS011;33676;51.006;17.180;2023-12-20T03:28:00;10.30;;;9.30;;
47912;SDS011;33676;51.006;17.180;2023-12-20T03:30:29;11.40;;;8.20;;
47912;SDS011;33676;51.006;17.180;2023-12-20T03:32:57;8.80;;;8.00;;
47912;SDS011;33676;51.006;17.180;2023-12-20T03:35:26;8.30;;;7.50;;
47912;SDS011;33676;51.006;17.180;2023-12-20T03:37:54;9.60;;;8.70;;
47912;SDS011;33676;51.006;17.180;2023-12-20T03:40:23;8.40;;;7.60;;
47912;SDS011;33676;51.006;17.180;2023-12-20T03:42:52;8.00;;;7.20;;
47912;SDS011;33676;51.006;17.180;2023-12-20T03:45:20;8.70;;;7.70;;
47912;SDS011;33676;51.006;17.180;2023-12-20T03:47:48;9.00;;;8.10;;
47912;SDS011;33676;51.006;17.180;2023-12-20T03:50:18;8.70;;;7.90;;
47912;SDS011;33676;51.006;17.180;2023-12-20T03:52:46;8.80;;;8.00;;
47912;SDS011;33676;51.006;17.180;2023-12-20T03:55:15;8.50;;;7.70;;
47912;SDS011;33676;51.006;17.180;2023-12-20T03:57:44;10.70;;;9.30;;
47912;SDS011;33676;51.006;17.180;2023-12-20T04:00:13;10.40;;;9.10;;
47912;SDS011;33676;51.006;17.180;2023-12-20T04:02:42;10.30;;;9.30;;
47912;SDS011;33676;51.006;17.180;2023-12-20T04:05:10;9.20;;;8.20;;
47912;SDS011;33676;51.006;17.180;2023-12-20T04:07:39;9.90;;;8.80;;
47912;SDS011;33676;51.006;17.180;2023-12-20T04:10:08;9.30;;;8.20;;
47912;SDS011;33676;51.006;17.180;2023-12-20T04:12:37;9.10;;;8.20;;
47912;SDS011;33676;51.006;17.180;2023-12-20T04:15:06;7.40;;;6.60;;
47912;SDS011;33676;51.006;17.180;2023-12-20T04:17:38;6.40;;;5.50;;
47912;SDS011;33676;51.006;17.180;2023-12-20T04:20:07;5.60;;;5.20;;
47912;SDS011;33676;51.006;17.180;2023-12-20T04:22:36;4.00;;;3.70;;
47912;SDS011;33676;51.006;17.180;2023-12-20T04:25:05;2.50;;;2.30;;
47912;SDS011;33676;51.006;17.180;2023-12-20T04:27:33;2.80;;;2.60;;
47912;SDS011;33676;51.006;17.180;2023-12-20T04:30:02;2.80;;;2.60;;
47912;SDS011;33676;51.006;17.180;2023-12-20T04:32:32;3.10;;;2.80;;
47912;SDS011;33676;51.006;17.180;2023-12-20T04:35:00;2.50;;;2.30;;
47912;SDS011;33676;51.006;17.180;2023-12-20T04:37:29;3.00;;;2.80;;
47912;SDS011;33676;51.006;17.180;2023-12-20T04:39:57;2.60;;;2.40;;
47912;SDS011;33676;51.006;17.180;2023-12-20T04:42:26;1.90;;;1.80;;
47912;SDS011;33676;51.006;17.180;2023-12-20T04:44:54;5.80;;;3.40;;
47912;SDS011;33676;51.006;17.180;2023-12-20T04:47:23;4.00;;;3.70;;
47912;SDS011;33676;51.006;17.180;2023-12-20T04:49:51;3.80;;;3.20;;
47912;SDS011;33676;51.006;17.180;2023-12-20T04:52:20;3.30;;;3.10;;
47912;SDS011;33676;51.006;17.180;2023-12-20T04:54:49;2.20;;;2.00;;
47912;SDS011;33676;51.006;17.180;2023-12-20T04:57:17;2.60;;;2.40;;
47912;SDS011;33676;51.006;17.180;2023-12-20T04:59:46;2.40;;;2.20;;
47912;SDS011;33676;51.006;17.180;2023-12-20T05:02:14;1.80;;;1.70;;
47912;SDS011;33676;51.006;17.180;2023-12-20T05:04:42;1.20;;;1.20;;
47912;SDS011;33676;51.006;17.180;2023-12-20T05:07:11;1.40;;;1.30;;
47912;SDS011;33676;51.006;17.180;2023-12-20T05:09:40;0.70;;;0.70;;
47912;SDS011;33676;51.006;17.180;2023-12-20T05:12:08;0.70;;;0.70;;
47912;SDS011;33676;51.006;17.180;2023-12-20T05:14:36;1.00;;;1.00;;
47912;SDS011;33676;51.006;17.180;2023-12-20T05:17:05;1.00;;;1.00;;
47912;SDS011;33676;51.006;17.180;2023-12-20T05:19:33;0.90;;;0.90;;
47912;SDS011;33676;51.006;17.180;2023-12-20T05:22:05;0.90;;;0.90;;
47912;SDS011;33676;51.006;17.180;2023-12-20T05:24:33;0.80;;;0.80;;
47912;SDS011;33676;51.006;17.180;2023-12-20T05:27:02;1.50;;;1.00;;
47912;SDS011;33676;51.006;17.180;2023-12-20T05:29:31;1.00;;;0.90;;
47912;SDS011;33676;51.006;17.180;2023-12-20T05:31:59;0.90;;;0.90;;
47912;SDS011;33676;51.006;17.180;2023-12-20T05:34:27;1.40;;;1.30;;
47912;SDS011;33676;51.006;17.180;2023-12-20T05:36:57;1.70;;;1.60;;
47912;SDS011;33676;51.006;17.180;2023-12-20T05:39:26;1.40;;;1.30;;
47912;SDS011;33676;51.006;17.180;2023-12-20T05:41:54;3.10;;;2.40;;
47912;SDS011;33676;51.006;17.180;2023-12-20T05:44:23;1.70;;;1.60;;
47912;SDS011;33676;51.006;17.180;2023-12-20T05:46:51;2.90;;;2.70;;
47912;SDS011;33676;51.006;17.180;2023-12-20T05:49:20;3.60;;;2.90;;
47912;SDS011;33676;51.006;17.180;2023-12-20T05:51:50;2.10;;;2.00;;
47912;SDS011;33676;51.006;17.180;2023-12-20T05:54:19;2.20;;;2.10;;
47912;SDS011;33676;51.006;17.180;2023-12-20T05:56:48;3.80;;;3.50;;
47912;SDS011;33676;51.006;17.180;2023-12-20T05:59:16;3.90;;;3.60;;
47912;SDS011;33676;51.006;17.180;2023-12-20T06:01:45;2.70;;;2.40;;
47912;SDS011;33676;51.006;17.180;2023-12-20T06:04:13;6.90;;;5.60;;
47912;SDS011;33676;51.006;17.180;2023-12-20T06:06:42;7.10;;;6.10;;
47912;SDS011;33676;51.006;17.180;2023-12-20T06:09:12;6.90;;;5.50;;
47912;SDS011;33676;51.006;17.180;2023-12-20T06:11:40;4.30;;;3.90;;
47912;SDS011;33676;51.006;17.180;2023-12-20T06:14:09;5.40;;;4.20;;
47912;SDS011;33676;51.006;17.180;2023-12-20T06:16:37;3.30;;;3.10;;
47912;SDS011;33676;51.006;17.180;2023-12-20T06:19:05;4.00;;;3.70;;
47912;SDS011;33676;51.006;17.180;2023-12-20T06:22:03;2.60;;;2.40;;
47912;SDS011;33676;51.006;17.180;2023-12-20T06:24:32;3.60;;;2.80;;
47912;SDS011;33676;51.006;17.180;2023-12-20T06:27:02;3.90;;;3.50;;
47912;SDS011;33676;51.006;17.180;2023-12-20T06:29:31;3.80;;;3.30;;
47912;SDS011;33676;51.006;17.180;2023-12-20T06:32:00;2.60;;;2.40;;
47912;SDS011;33676;51.006;17.180;2023-12-20T06:34:28;8.50;;;5.10;;
47912;SDS011;33676;51.006;17.180;2023-12-20T06:36:57;7.90;;;6.80;;
47912;SDS011;33676;51.006;17.180;2023-12-20T06:39:26;6.50;;;4.80;;
47912;SDS011;33676;51.006;17.180;2023-12-20T06:41:54;5.40;;;3.30;;
47912;SDS011;33676;51.006;17.180;2023-12-20T06:44:23;2.50;;;2.20;;
47912;SDS011;33676;51.006;17.180;2023-12-20T06:46:51;2.90;;;2.70;;
47912;SDS011;33676;51.006;17.180;2023-12-20T06:49:19;7.80;;;6.10;;
47912;SDS011;33676;51.006;17.180;2023-12-20T06:51:48;4.60;;;3.90;;
47912;SDS011;33676;51.006;17.180;2023-12-20T06:54:17;3.50;;;3.00;;
47912;SDS011;33676;51.006;17.180;2023-12-20T06:56:45;3.30;;;2.40;;
47912;SDS011;33676;51.006;17.180;2023-12-20T06:59:14;1.70;;;1.60;;
47912;SDS011;33676;51.006;17.180;2023-12-20T07:01:42;3.10;;;2.80;;
47912;SDS011;33676;51.006;17.180;2023-12-20T07:04:16;2.40;;;2.20;;
47912;SDS011;33676;51.006;17.180;2023-12-20T07:06:50;3.10;;;2.80;;
47912;SDS011;33676;51.006;17.180;2023-12-20T07:09:29;4.30;;;3.30;;
47912;SDS011;33676;51.006;17.180;2023-12-20T07:11:57;4.10;;;3.80;;
47912;SDS011;33676;51.006;17.180;2023-12-20T07:14:26;3.30;;;3.00;;
47912;SDS011;33676;51.006;17.180;2023-12-20T07:16:56;2.30;;;2.10;;
47912;SDS011;33676;51.006;17.180;2023-12-20T07:19:24;2.70;;;2.30;;
47912;SDS011;33676;51.006;17.180;2023-12-20T07:21:53;4.20;;;2.60;;
47912;SDS011;33676;51.006;17.180;2023-12-20T07:24:21;2.20;;;2.10;;
47912;SDS011;33676;51.006;17.180;2023-12-20T07:26:49;3.00;;;2.60;;
47912;SDS011;33676;51.006;17.180;2023-12-20T07:29:19;2.40;;;2.20;;
47912;SDS011;33676;51.006;17.180;2023-12-20T07:31:47;4.10;;;3.70;;
47912;SDS011;33676;51.006;17.180;2023-12-20T07:34:16;10.30;;;6.70;;
47912;SDS011;33676;51.006;17.180;2023-12-20T07:36:44;6.10;;;5.30;;
47912;SDS011;33676;51.006;17.180;2023-12-20T07:39:14;2.60;;;2.50;;
47912;SDS011;33676;51.006;17.180;2023-12-20T07:41:42;4.80;;;4.40;;
47912;SDS011;33676;51.006;17.180;2023-12-20T07:44:14;3.10;;;2.80;;
47912;SDS011;33676;51.006;17.180;2023-12-20T07:46:43;2.70;;;2.50;;
47912;SDS011;33676;51.006;17.180;2023-12-20T07:49:12;5.50;;;4.30;;
47912;SDS011;33676;51.006;17.180;2023-12-20T07:51:41;5.90;;;5.00;;
47912;SDS011;33676;51.006;17.180;2023-12-20T07:54:09;3.70;;;3.30;;
47912;SDS011;33676;51.006;17.180;2023-12-20T07:56:37;3.10;;;2.40;;
47912;SDS011;33676;51.006;17.180;2023-12-20T07:59:08;3.50;;;3.20;;
47912;SDS011;33676;51.006;17.180;2023-12-20T08:01:49;2.90;;;2.60;;
47912;SDS011;33676;51.006;17.180;2023-12-20T08:04:18;3.00;;;2.80;;
47912;SDS011;33676;51.006;17.180;2023-12-20T08:06:47;1.80;;;1.70;;
47912;SDS011;33676;51.006;17.180;2023-12-20T08:09:16;5.40;;;3.00;;
47912;SDS011;33676;51.006;17.180;2023-12-20T08:11:48;3.70;;;3.40;;
47912;SDS011;33676;51.006;17.180;2023-12-20T08:14:17;4.40;;;3.80;;
47912;SDS011;33676;51.006;17.180;2023-12-20T08:16:45;7.20;;;5.60;;
47912;SDS011;33676;51.006;17.180;2023-12-20T08:19:13;2.10;;;1.90;;
47912;SDS011;33676;51.006;17.180;2023-12-20T08:21:42;2.70;;;2.40;;
47912;SDS011;33676;51.006;17.180;2023-12-20T08:24:11;2.50;;;2.30;;
47912;SDS011;33676;51.006;17.180;2023-12-20T08:26:39;2.80;;;2.70;;
47912;SDS011;33676;51.006;17.180;2023-12-20T08:29:08;4.20;;;2.80;;
47912;SDS011;33676;51.006;17.180;2023-12-20T08:31:37;3.20;;;2.90;;
47912;SDS011;33676;51.006;17.180;2023-12-20T08:34:05;9.20;;;7.10;;
47912;SDS011;33676;51.006;17.180;2023-12-20T08:36:36;13.90;;;9.50;;
47912;SDS011;33676;51.006;17.180;2023-12-20T08:39:05;6.60;;;5.10;;
47912;SDS011;33676;51.006;17.180;2023-12-20T08:41:35;8.90;;;5.80;;
47912;SDS011;33676;51.006;17.180;2023-12-20T08:44:05;10.20;;;4.80;;
47912;SDS011;33676;51.006;17.180;2023-12-20T08:46:33;5.00;;;3.80;;
47912;SDS011;33676;51.006;17.180;2023-12-20T08:49:02;2.80;;;2.20;;
47912;SDS011;33676;51.006;17.180;2023-12-20T08:51:31;10.30;;;8.60;;
47912;SDS011;33676;51.006;17.180;2023-12-20T08:53:59;8.40;;;6.00;;
47912;SDS011;33676;51.006;17.180;2023-12-20T08:56:28;13.20;;;10.40;;
47912;SDS011;33676;51.006;17.180;2023-12-20T08:58:56;14.40;;;11.00;;
47912;SDS011;33676;51.006;17.180;2023-12-20T09:01:25;20.10;;;12.50;;
47912;SDS011;33676;51.006;17.180;2023-12-20T09:03:53;11.80;;;8.40;;
47912;SDS011;33676;51.006;17.180;2023-12-20T09:06:22;6.80;;;5.40;;
47912;SDS011;33676;51.006;17.180;2023-12-20T09:08:50;6.30;;;4.60;;
47912;SDS011;33676;51.006;17.180;2023-12-20T09:11:19;5.10;;;4.60;;
47912;SDS011;33676;51.006;17.180;2023-12-20T09:13:48;5.20;;;3.50;;
47912;SDS011;33676;51.006;17.180;2023-12-20T09:16:17;3.00;;;2.70;;
47912;SDS011;33676;51.006;17.180;2023-12-20T09:18:45;3.30;;;2.80;;
47912;SDS011;33676;51.006;17.180;2023-12-20T09:21:14;3.50;;;2.80;;
47912;SDS011;33676;51.006;17.180;2023-12-20T09:23:43;1.50;;;1.40;;
47912;SDS011;33676;51.006;17.180;2023-12-20T09:26:11;2.10;;;1.90;;
47912;SDS011;33676;51.006;17.180;2023-12-20T09:28:39;6.90;;;4.80;;
47912;SDS011;33676;51.006;17.180;2023-12-20T09:31:09;7.20;;;5.40;;
47912;SDS011;33676;51.006;17.180;2023-12-20T09:33:37;7.40;;;4.90;;
47912;SDS011;33676;51.006;17.180;2023-12-20T09:36:06;4.90;;;3.10;;
47912;SDS011;33676;51.006;17.180;2023-12-20T09:38:35;1.60;;;1.50;;
47912;SDS011;33676;51.006;17.180;2023-12-20T09:41:03;3.00;;;2.70;;
47912;SDS011;33676;51.006;17.180;2023-12-20T09:43:35;2.50;;;1.80;;
47912;SDS011;33676;51.006;17.180;2023-12-20T09:46:06;1.80;;;1.60;;
47912;SDS011;33676;51.006;17.180;2023-12-20T09:48:36;3.00;;;2.50;;
47912;SDS011;33676;51.006;17.180;2023-12-20T09:51:05;4.20;;;3.20;;
47912;SDS011;33676;51.006;17.180;2023-12-20T09:53:34;3.30;;;2.90;;
47912;SDS011;33676;51.006;17.180;2023-12-20T09:56:05;3.70;;;3.20;;
47912;SDS011;33676;51.006;17.180;2023-12-20T09:58:37;6.50;;;4.70;;
47912;SDS011;33676;51.006;17.180;2023-12-20T10:01:07;1.40;;;1.30;;
47912;SDS011;33676;51.006;17.180;2023-12-20T10:03:36;2.10;;;1.60;;
47912;SDS011;33676;51.006;17.180;2023-12-20T10:06:10;2.50;;;2.20;;
47912;SDS011;33676;51.006;17.180;2023-12-20T10:08:39;1.60;;;0.80;;
47912;SDS011;33676;51.006;17.180;2023-12-20T10:11:07;2.20;;;1.80;;
47912;SDS011;33676;51.006;17.180;2023-12-20T10:13:40;1.00;;;1.00;;
47912;SDS011;33676;51.006;17.180;2023-12-20T10:16:09;2.30;;;1.70;;
47912;SDS011;33676;51.006;17.180;2023-12-20T10:18:38;1.10;;;1.10;;
47912;SDS011;33676;51.006;17.180;2023-12-20T10:21:07;2.00;;;1.90;;
47912;SDS011;33676;51.006;17.180;2023-12-20T10:23:38;3.80;;;2.00;;
47912;SDS011;33676;51.006;17.180;2023-12-20T10:26:08;1.80;;;1.70;;
47912;SDS011;33676;51.006;17.180;2023-12-20T10:28:38;3.50;;;1.40;;
47912;SDS011;33676;51.006;17.180;2023-12-20T10:31:07;2.40;;;1.60;;
47912;SDS011;33676;51.006;17.180;2023-12-20T10:33:36;2.20;;;1.70;;
47912;SDS011;33676;51.006;17.180;2023-12-20T10:36:05;2.40;;;1.90;;
47912;SDS011;33676;51.006;17.180;2023-12-20T10:38:34;1.30;;;1.10;;
47912;SDS011;33676;51.006;17.180;2023-12-20T10:41:06;4.10;;;1.90;;
47912;SDS011;33676;51.006;17.180;2023-12-20T10:43:37;2.00;;;1.60;;
47912;SDS011;33676;51.006;17.180;2023-12-20T10:46:08;2.90;;;1.60;;
47912;SDS011;33676;51.006;17.180;2023-12-20T10:48:36;4.20;;;1.70;;
47912;SDS011;33676;51.006;17.180;2023-12-20T10:51:08;2.50;;;1.40;;
47912;SDS011;33676;51.006;17.180;2023-12-20T10:53:38;1.70;;;1.60;;
47912;SDS011;33676;51.006;17.180;2023-12-20T10:56:09;2.70;;;1.80;;
47912;SDS011;33676;51.006;17.180;2023-12-20T10:58:45;1.80;;;1.70;;
47912;SDS011;33676;51.006;17.180;2023-12-20T11:01:18;2.00;;;1.90;;
47912;SDS011;33676;51.006;17.180;2023-12-20T11:03:52;1.50;;;1.40;;
47912;SDS011;33676;51.006;17.180;2023-12-20T11:06:41;1.70;;;1.60;;
47912;SDS011;33676;51.006;17.180;2023-12-20T11:09:42;4.80;;;1.60;;
47912;SDS011;33676;51.006;17.180;2023-12-20T11:12:18;3.20;;;2.10;;
47912;SDS011;33676;51.006;17.180;2023-12-20T11:14:57;8.00;;;6.00;;
47912;SDS011;33676;51.006;17.180;2023-12-20T11:17:31;3.60;;;2.60;;
47912;SDS011;33676;51.006;17.180;2023-12-20T11:22:31;4.00;;;2.70;;
47912;SDS011;33676;51.006;17.180;2023-12-20T11:25:07;3.60;;;2.00;;
47912;SDS011;33676;51.006;17.180;2023-12-20T11:27:41;2.60;;;1.70;;
47912;SDS011;33676;51.006;17.180;2023-12-20T11:30:16;2.50;;;2.20;;
47912;SDS011;33676;51.006;17.180;2023-12-20T11:32:45;7.40;;;4.70;;
47912;SDS011;33676;51.006;17.180;2023-12-20T11:37:43;5.80;;;2.30;;
47912;SDS011;33676;51.006;17.180;2023-12-20T11:40:15;4.80;;;2.80;;
47912;SDS011;33676;51.006;17.180;2023-12-20T11:42:48;3.10;;;2.20;;
47912;SDS011;33676;51.006;17.180;2023-12-20T11:45:20;2.60;;;1.90;;
47912;SDS011;33676;51.006;17.180;2023-12-20T11:47:51;5.60;;;3.10;;
47912;SDS011;33676;51.006;17.180;2023-12-20T11:50:23;2.90;;;2.30;;
47912;SDS011;33676;51.006;17.180;2023-12-20T11:52:53;4.60;;;3.30;;
47912;SDS011;33676;51.006;17.180;2023-12-20T11:55:25;4.90;;;2.10;;
47912;SDS011;33676;51.006;17.180;2023-12-20T11:57:54;2.40;;;2.30;;
47912;SDS011;33676;51.006;17.180;2023-12-20T12:00:22;3.00;;;1.90;;
47912;SDS011;33676;51.006;17.180;2023-12-20T12:02:58;1.50;;;1.40;;
47912;SDS011;33676;51.006;17.180;2023-12-20T12:05:28;2.00;;;1.50;;
47912;SDS011;33676;51.006;17.180;2023-12-20T12:07:59;2.50;;;2.00;;
47912;SDS011;33676;51.006;17.180;2023-12-20T12:10:31;2.50;;;2.20;;
47912;SDS011;33676;51.006;17.180;2023-12-20T12:13:00;7.20;;;2.50;;
47912;SDS011;33676;51.006;17.180;2023-12-20T12:15:29;2.80;;;1.80;;
47912;SDS011;33676;51.006;17.180;2023-12-20T12:17:57;2.60;;;2.00;;
47912;SDS011;33676;51.006;17.180;2023-12-20T12:20:27;1.90;;;1.70;;
47912;SDS011;33676;51.006;17.180;2023-12-20T12:23:03;5.80;;;3.80;;
47912;SDS011;33676;51.006;17.180;2023-12-20T12:25:35;4.00;;;3.20;;
47912;SDS011;33676;51.006;17.180;2023-12-20T12:28:10;6.00;;;4.50;;
47912;SDS011;33676;51.006;17.180;2023-12-20T12:30:39;7.90;;;4.50;;
47912;SDS011;33676;51.006;17.180;2023-12-20T12:33:20;17.40;;;9.90;;
47912;SDS011;33676;51.006;17.180;2023-12-20T12:35:49;6.50;;;5.30;;
47912;SDS011;33676;51.006;17.180;2023-12-20T12:38:22;2.00;;;1.80;;
47912;SDS011;33676;51.006;17.180;2023-12-20T12:40:52;5.60;;;2.90;;
47912;SDS011;33676;51.006;17.180;2023-12-20T12:43:22;2.50;;;2.10;;
47912;SDS011;33676;51.006;17.180;2023-12-20T12:45:51;2.30;;;1.90;;
47912;SDS011;33676;51.006;17.180;2023-12-20T12:48:21;4.50;;;1.90;;
47912;SDS011;33676;51.006;17.180;2023-12-20T12:50:49;3.20;;;2.40;;
47912;SDS011;33676;51.006;17.180;2023-12-20T12:53:20;1.60;;;1.20;;
47912;SDS011;33676;51.006;17.180;2023-12-20T12:55:48;2.90;;;2.70;;
47912;SDS011;33676;51.006;17.180;2023-12-20T12:58:19;3.10;;;2.30;;
47912;SDS011;33676;51.006;17.180;2023-12-20T13:00:48;2.70;;;2.00;;
47912;SDS011;33676;51.006;17.180;2023-12-20T13:03:21;2.30;;;1.90;;
47912;SDS011;33676;51.006;17.180;2023-12-20T13:05:50;1.60;;;1.50;;
47912;SDS011;33676;51.006;17.180;2023-12-20T13:08:19;3.80;;;2.40;;
47912;SDS011;33676;51.006;17.180;2023-12-20T13:10:47;3.80;;;1.80;;
47912;SDS011;33676;51.006;17.180;2023-12-20T13:13:16;4.20;;;1.60;;
47912;SDS011;33676;51.006;17.180;2023-12-20T13:15:45;3.00;;;1.90;;
47912;SDS011;33676;51.006;17.180;2023-12-20T13:18:19;4.10;;;2.10;;
47912;SDS011;33676;51.006;17.180;2023-12-20T13:20:48;3.30;;;2.20;;
47912;SDS011;33676;51.006;17.180;2023-12-20T13:23:17;1.90;;;1.80;;
47912;SDS011;33676;51.006;17.180;2023-12-20T13:26:05;8.90;;;3.90;;
47912;SDS011;33676;51.006;17.180;2023-12-20T13:28:34;16.50;;;10.30;;
47912;SDS011;33676;51.006;17.180;2023-12-20T13:31:02;12.40;;;9.10;;
47912;SDS011;33676;51.006;17.180;2023-12-20T13:33:31;9.80;;;6.70;;
47912;SDS011;33676;51.006;17.180;2023-12-20T13:36:00;6.30;;;5.10;;
47912;SDS011;33676;51.006;17.180;2023-12-20T13:38:32;11.80;;;7.70;;
47912;SDS011;33676;51.006;17.180;2023-12-20T13:41:01;7.00;;;5.10;;
47912;SDS011;33676;51.006;17.180;2023-12-20T13:43:36;8.60;;;6.40;;
47912;SDS011;33676;51.006;17.180;2023-12-20T13:46:05;8.80;;;5.20;;
47912;SDS011;33676;51.006;17.180;2023-12-20T13:48:34;8.40;;;5.30;;
47912;SDS011;33676;51.006;17.180;2023-12-20T13:51:02;9.00;;;5.90;;
47912;SDS011;33676;51.006;17.180;2023-12-20T13:53:32;7.50;;;4.70;;
47912;SDS011;33676;51.006;17.180;2023-12-20T13:56:00;13.00;;;6.30;;
47912;SDS011;33676;51.006;17.180;2023-12-20T13:58:29;10.10;;;6.40;;
47912;SDS011;33676;51.006;17.180;2023-12-20T14:00:58;11.90;;;8.30;;
47912;SDS011;33676;51.006;17.180;2023-12-20T14:03:26;10.60;;;6.50;;
47912;SDS011;33676;51.006;17.180;2023-12-20T14:05:57;7.80;;;5.40;;
47912;SDS011;33676;51.006;17.180;2023-12-20T14:08:26;9.70;;;4.00;;
47912;SDS011;33676;51.006;17.180;2023-12-20T14:10:55;12.10;;;6.40;;
47912;SDS011;33676;51.006;17.180;2023-12-20T14:13:23;10.80;;;7.10;;
47912;SDS011;33676;51.006;17.180;2023-12-20T14:15:52;11.00;;;6.00;;
47912;SDS011;33676;51.006;17.180;2023-12-20T14:18:22;8.70;;;4.90;;
47912;SDS011;33676;51.006;17.180;2023-12-20T14:20:50;8.10;;;4.50;;
47912;SDS011;33676;51.006;17.180;2023-12-20T14:23:19;8.40;;;3.60;;
47912;SDS011;33676;51.006;17.180;2023-12-20T14:25:47;4.50;;;2.60;;
47912;SDS011;33676;51.006;17.180;2023-12-20T14:28:20;5.70;;;3.70;;
47912;SDS011;33676;51.006;17.180;2023-12-20T14:30:48;2.70;;;2.10;;
47912;SDS011;33676;51.006;17.180;2023-12-20T14:33:17;3.30;;;1.80;;
47912;SDS011;33676;51.006;17.180;2023-12-20T14:35:49;4.00;;;2.80;;
47912;SDS011;33676;51.006;17.180;2023-12-20T14:38:17;3.90;;;2.00;;
47912;SDS011;33676;51.006;17.180;2023-12-20T14:40:47;3.40;;;2.30;;
47912;SDS011;33676;51.006;17.180;2023-12-20T14:43:16;4.00;;;2.00;;
47912;SDS011;33676;51.006;17.180;2023-12-20T14:45:44;2.30;;;1.90;;
47912;SDS011;33676;51.006;17.180;2023-12-20T14:48:13;5.20;;;2.10;;
47912;SDS011;33676;51.006;17.180;2023-12-20T14:50:42;2.90;;;1.60;;
47912;SDS011;33676;51.006;17.180;2023-12-20T14:53:10;2.90;;;2.00;;
47912;SDS011;33676;51.006;17.180;2023-12-20T14:55:39;2.50;;;2.30;;
47912;SDS011;33676;51.006;17.180;2023-12-20T14:58:08;5.30;;;4.00;;